sensor_id;sensor_type;location;lat;lon;timestamp;temperature;humidity
12578;DHT22;6354;51.026;8.968;2022-12-18T00:02:24;-8.30;99.90
12578;DHT22;6354;51.026;8.968;2022-12-18T00:04:53;-8.30;99.90
12578;DHT22;6354;51.026;8.968;2022-12-18T00:07:22;-8.30;99.90
12578;DHT22;6354;51.026;8.968;2022-12-18T00:09:50;-8.30;99.90
12578;DHT22;6354;51.026;8.968;2022-12-18T00:12:18;-8.40;99.90
12578;DHT22;6354;51.026;8.968;2022-12-18T00:14:46;-8.30;99.90
12578;DHT22;6354;51.026;8.968;2022-12-18T00:17:14;-8.30;99.90
12578;DHT22;6354;51.026;8.968;2022-12-18T00:19:43;-8.40;99.90
12578;DHT22;6354;51.026;8.968;2022-12-18T00:22:11;-8.30;99.90
12578;DHT22;6354;51.026;8.968;2022-12-18T00:24:40;-8.30;99.90
12578;DHT22;6354;51.026;8.968;2022-12-18T00:27:08;-8.30;99.90
12578;DHT22;6354;51.026;8.968;2022-12-18T00:29:40;-8.30;99.90
12578;DHT22;6354;51.026;8.968;2022-12-18T00:32:08;-8.40;99.90
12578;DHT22;6354;51.026;8.968;2022-12-18T00:34:37;-8.30;99.90
12578;DHT22;6354;51.026;8.968;2022-12-18T00:37:05;-8.30;99.90
12578;DHT22;6354;51.026;8.968;2022-12-18T00:39:33;-8.20;99.90
12578;DHT22;6354;51.026;8.968;2022-12-18T00:42:02;-8.10;99.90
12578;DHT22;6354;51.026;8.968;2022-12-18T00:44:48;-8.10;99.90
12578;DHT22;6354;51.026;8.968;2022-12-18T00:47:16;-8.10;99.90
12578;DHT22;6354;51.026;8.968;2022-12-18T00:49:44;-8.10;99.90
12578;DHT22;6354;51.026;8.968;2022-12-18T00:52:12;-8.20;99.90
12578;DHT22;6354;51.026;8.968;2022-12-18T00:54:41;-8.20;99.90
12578;DHT22;6354;51.026;8.968;2022-12-18T00:57:10;-8.20;99.90
12578;DHT22;6354;51.026;8.968;2022-12-18T00:59:38;-8.30;99.90
12578;DHT22;6354;51.026;8.968;2022-12-18T01:02:06;-8.30;99.90
12578;DHT22;6354;51.026;8.968;2022-12-18T01:04:35;-8.40;99.90
12578;DHT22;6354;51.026;8.968;2022-12-18T01:07:03;-8.40;99.90
12578;DHT22;6354;51.026;8.968;2022-12-18T01:09:31;-8.30;99.90
12578;DHT22;6354;51.026;8.968;2022-12-18T01:11:59;-8.40;99.90
12578;DHT22;6354;51.026;8.968;2022-12-18T01:14:28;-8.30;99.90
12578;DHT22;6354;51.026;8.968;2022-12-18T01:16:56;-8.30;99.90
12578;DHT22;6354;51.026;8.968;2022-12-18T01:19:25;-8.30;99.90
12578;DHT22;6354;51.026;8.968;2022-12-18T01:21:53;-8.30;99.90
12578;DHT22;6354;51.026;8.968;2022-12-18T01:24:21;-8.30;99.90
12578;DHT22;6354;51.026;8.968;2022-12-18T01:26:49;-8.30;99.90
12578;DHT22;6354;51.026;8.968;2022-12-18T01:29:17;-8.30;99.90
12578;DHT22;6354;51.026;8.968;2022-12-18T01:31:46;-8.30;99.90
12578;DHT22;6354;51.026;8.968;2022-12-18T01:34:15;-8.30;99.90
12578;DHT22;6354;51.026;8.968;2022-12-18T01:36:43;-8.40;99.90
12578;DHT22;6354;51.026;8.968;2022-12-18T01:39:12;-8.40;99.90
12578;DHT22;6354;51.026;8.968;2022-12-18T01:41:41;-8.50;99.90
12578;DHT22;6354;51.026;8.968;2022-12-18T01:44:57;-8.40;99.90
12578;DHT22;6354;51.026;8.968;2022-12-18T01:47:30;-8.40;99.90
12578;DHT22;6354;51.026;8.968;2022-12-18T01:50:02;-8.40;99.90
12578;DHT22;6354;51.026;8.968;2022-12-18T01:52:32;-8.40;99.90
12578;DHT22;6354;51.026;8.968;2022-12-18T01:55:02;-8.40;99.90
12578;DHT22;6354;51.026;8.968;2022-12-18T01:57:31;-8.40;99.90
12578;DHT22;6354;51.026;8.968;2022-12-18T02:00:01;-8.30;99.90
12578;DHT22;6354;51.026;8.968;2022-12-18T02:02:31;-8.30;99.90
12578;DHT22;6354;51.026;8.968;2022-12-18T02:05:00;-8.20;99.90
12578;DHT22;6354;51.026;8.968;2022-12-18T02:07:37;-8.20;99.90
12578;DHT22;6354;51.026;8.968;2022-12-18T02:10:10;-8.20;99.90
12578;DHT22;6354;51.026;8.968;2022-12-18T02:12:43;-8.20;99.90
12578;DHT22;6354;51.026;8.968;2022-12-18T02:15:15;-8.20;99.90
12578;DHT22;6354;51.026;8.968;2022-12-18T02:17:52;-8.20;99.90
12578;DHT22;6354;51.026;8.968;2022-12-18T02:20:24;-8.20;99.90
12578;DHT22;6354;51.026;8.968;2022-12-18T02:23:06;-8.30;99.90
12578;DHT22;6354;51.026;8.968;2022-12-18T02:28:42;-8.30;99.90
12578;DHT22;6354;51.026;8.968;2022-12-18T02:31:15;-8.40;99.90
12578;DHT22;6354;51.026;8.968;2022-12-18T02:33:46;-8.50;99.90
12578;DHT22;6354;51.026;8.968;2022-12-18T02:36:16;-8.50;99.90
12578;DHT22;6354;51.026;8.968;2022-12-18T02:38:45;-8.50;99.90
12578;DHT22;6354;51.026;8.968;2022-12-18T02:41:14;-8.50;99.90
12578;DHT22;6354;51.026;8.968;2022-12-18T02:43:47;-8.50;99.90
12578;DHT22;6354;51.026;8.968;2022-12-18T02:46:27;-8.50;99.90
12578;DHT22;6354;51.026;8.968;2022-12-18T02:49:04;-8.50;99.90
12578;DHT22;6354;51.026;8.968;2022-12-18T02:51:41;-8.50;99.90
12578;DHT22;6354;51.026;8.968;2022-12-18T02:54:21;-8.50;99.90
12578;DHT22;6354;51.026;8.968;2022-12-18T02:56:55;-8.40;99.90
12578;DHT22;6354;51.026;8.968;2022-12-18T02:59:30;-8.40;99.90
12578;DHT22;6354;51.026;8.968;2022-12-18T03:02:17;-8.50;99.90
12578;DHT22;6354;51.026;8.968;2022-12-18T03:04:49;-8.50;99.90
12578;DHT22;6354;51.026;8.968;2022-12-18T03:07:34;-8.40;99.90
12578;DHT22;6354;51.026;8.968;2022-12-18T03:10:07;-8.40;99.90
12578;DHT22;6354;51.026;8.968;2022-12-18T03:12:40;-8.40;99.90
12578;DHT22;6354;51.026;8.968;2022-12-18T03:15:14;-8.40;99.90
12578;DHT22;6354;51.026;8.968;2022-12-18T03:17:48;-8.50;99.90
12578;DHT22;6354;51.026;8.968;2022-12-18T03:20:20;-8.50;99.90
12578;DHT22;6354;51.026;8.968;2022-12-18T03:22:53;-8.50;99.90
12578;DHT22;6354;51.026;8.968;2022-12-18T03:25:25;-8.50;99.90
12578;DHT22;6354;51.026;8.968;2022-12-18T03:27:56;-8.50;99.90
12578;DHT22;6354;51.026;8.968;2022-12-18T03:30:29;-8.60;99.90
12578;DHT22;6354;51.026;8.968;2022-12-18T03:33:02;-8.60;99.90
12578;DHT22;6354;51.026;8.968;2022-12-18T03:35:36;-8.60;99.90
12578;DHT22;6354;51.026;8.968;2022-12-18T03:38:05;-8.60;99.90
12578;DHT22;6354;51.026;8.968;2022-12-18T03:40:39;-8.60;99.90
12578;DHT22;6354;51.026;8.968;2022-12-18T03:43:10;-8.60;99.90
12578;DHT22;6354;51.026;8.968;2022-12-18T03:45:49;-8.70;99.90
12578;DHT22;6354;51.026;8.968;2022-12-18T03:48:25;-8.80;99.90
12578;DHT22;6354;51.026;8.968;2022-12-18T03:50:58;-8.70;99.90
12578;DHT22;6354;51.026;8.968;2022-12-18T03:53:35;-8.70;99.90
12578;DHT22;6354;51.026;8.968;2022-12-18T03:56:06;-8.60;99.90
12578;DHT22;6354;51.026;8.968;2022-12-18T03:58:37;-8.60;99.90
12578;DHT22;6354;51.026;8.968;2022-12-18T04:01:12;-8.50;99.90
12578;DHT22;6354;51.026;8.968;2022-12-18T04:03:42;-8.50;99.90
12578;DHT22;6354;51.026;8.968;2022-12-18T04:06:12;-8.50;99.90
12578;DHT22;6354;51.026;8.968;2022-12-18T04:08:41;-8.50;99.90
12578;DHT22;6354;51.026;8.968;2022-12-18T04:11:09;-8.50;99.90
12578;DHT22;6354;51.026;8.968;2022-12-18T04:13:38;-8.60;99.90
12578;DHT22;6354;51.026;8.968;2022-12-18T04:16:09;-8.60;99.90
12578;DHT22;6354;51.026;8.968;2022-12-18T04:18:37;-8.70;99.90
12578;DHT22;6354;51.026;8.968;2022-12-18T04:21:05;-8.70;99.90
12578;DHT22;6354;51.026;8.968;2022-12-18T04:23:33;-8.70;99.90
12578;DHT22;6354;51.026;8.968;2022-12-18T04:26:01;-8.70;99.90
12578;DHT22;6354;51.026;8.968;2022-12-18T04:28:29;-8.70;99.90
12578;DHT22;6354;51.026;8.968;2022-12-18T04:30:58;-8.80;99.90
12578;DHT22;6354;51.026;8.968;2022-12-18T04:33:27;-8.80;99.90
12578;DHT22;6354;51.026;8.968;2022-12-18T04:35:55;-8.80;99.90
12578;DHT22;6354;51.026;8.968;2022-12-18T04:38:23;-8.90;99.90
12578;DHT22;6354;51.026;8.968;2022-12-18T04:40:51;-8.80;99.90
12578;DHT22;6354;51.026;8.968;2022-12-18T04:43:20;-8.80;99.90
12578;DHT22;6354;51.026;8.968;2022-12-18T04:45:48;-8.70;99.90
12578;DHT22;6354;51.026;8.968;2022-12-18T04:48:16;-8.70;99.90
12578;DHT22;6354;51.026;8.968;2022-12-18T04:50:46;-8.70;99.90
12578;DHT22;6354;51.026;8.968;2022-12-18T04:53:15;-8.70;99.90
12578;DHT22;6354;51.026;8.968;2022-12-18T04:55:43;-8.70;99.90
12578;DHT22;6354;51.026;8.968;2022-12-18T04:58:11;-8.70;99.90
12578;DHT22;6354;51.026;8.968;2022-12-18T05:00:39;-8.70;99.90
12578;DHT22;6354;51.026;8.968;2022-12-18T05:03:07;-8.70;99.90
12578;DHT22;6354;51.026;8.968;2022-12-18T05:05:35;-8.60;99.90
12578;DHT22;6354;51.026;8.968;2022-12-18T05:08:05;-8.60;99.90
12578;DHT22;6354;51.026;8.968;2022-12-18T05:10:33;-8.60;99.90
12578;DHT22;6354;51.026;8.968;2022-12-18T05:13:04;-8.60;99.90
12578;DHT22;6354;51.026;8.968;2022-12-18T05:15:33;-8.60;99.90
12578;DHT22;6354;51.026;8.968;2022-12-18T05:18:02;-8.60;99.90
12578;DHT22;6354;51.026;8.968;2022-12-18T05:20:31;-8.70;99.90
12578;DHT22;6354;51.026;8.968;2022-12-18T05:22:59;-8.70;99.90
12578;DHT22;6354;51.026;8.968;2022-12-18T05:25:28;-8.60;99.90
12578;DHT22;6354;51.026;8.968;2022-12-18T05:27:57;-8.70;99.90
12578;DHT22;6354;51.026;8.968;2022-12-18T05:30:25;-8.70;99.90
12578;DHT22;6354;51.026;8.968;2022-12-18T05:32:54;-8.70;99.90
12578;DHT22;6354;51.026;8.968;2022-12-18T05:35:22;-8.70;99.90
12578;DHT22;6354;51.026;8.968;2022-12-18T05:37:50;-8.70;99.90
12578;DHT22;6354;51.026;8.968;2022-12-18T05:40:18;-8.80;99.90
12578;DHT22;6354;51.026;8.968;2022-12-18T05:42:48;-8.70;99.90
12578;DHT22;6354;51.026;8.968;2022-12-18T05:45:16;-8.70;99.90
12578;DHT22;6354;51.026;8.968;2022-12-18T05:47:44;-8.70;99.90
12578;DHT22;6354;51.026;8.968;2022-12-18T05:50:12;-8.70;99.90
12578;DHT22;6354;51.026;8.968;2022-12-18T05:52:40;-8.80;99.90
12578;DHT22;6354;51.026;8.968;2022-12-18T05:55:08;-8.70;99.90
12578;DHT22;6354;51.026;8.968;2022-12-18T05:57:36;-8.70;99.90
12578;DHT22;6354;51.026;8.968;2022-12-18T06:00:08;-8.70;99.90
12578;DHT22;6354;51.026;8.968;2022-12-18T06:02:36;-8.70;99.90
12578;DHT22;6354;51.026;8.968;2022-12-18T06:05:05;-8.70;99.90
12578;DHT22;6354;51.026;8.968;2022-12-18T06:07:33;-8.80;99.90
12578;DHT22;6354;51.026;8.968;2022-12-18T06:10:02;-8.80;99.90
12578;DHT22;6354;51.026;8.968;2022-12-18T06:12:30;-8.80;99.90
12578;DHT22;6354;51.026;8.968;2022-12-18T06:15:00;-8.80;99.90
12578;DHT22;6354;51.026;8.968;2022-12-18T06:17:30;-8.80;99.90
12578;DHT22;6354;51.026;8.968;2022-12-18T06:19:59;-8.80;99.90
12578;DHT22;6354;51.026;8.968;2022-12-18T06:22:27;-8.90;99.90
12578;DHT22;6354;51.026;8.968;2022-12-18T06:24:55;-8.90;99.90
12578;DHT22;6354;51.026;8.968;2022-12-18T06:27:24;-8.90;99.90
12578;DHT22;6354;51.026;8.968;2022-12-18T06:29:52;-8.90;99.90
12578;DHT22;6354;51.026;8.968;2022-12-18T06:32:20;-8.90;99.90
12578;DHT22;6354;51.026;8.968;2022-12-18T06:34:50;-8.90;99.90
12578;DHT22;6354;51.026;8.968;2022-12-18T06:37:18;-8.90;99.90
12578;DHT22;6354;51.026;8.968;2022-12-18T06:39:46;-9.00;99.90
12578;DHT22;6354;51.026;8.968;2022-12-18T06:42:14;-9.00;99.90
12578;DHT22;6354;51.026;8.968;2022-12-18T06:44:42;-9.00;99.90
12578;DHT22;6354;51.026;8.968;2022-12-18T06:47:10;-9.00;99.90
12578;DHT22;6354;51.026;8.968;2022-12-18T06:49:39;-9.00;99.90
12578;DHT22;6354;51.026;8.968;2022-12-18T06:52:08;-8.90;99.90
12578;DHT22;6354;51.026;8.968;2022-12-18T06:54:36;-9.00;99.90
12578;DHT22;6354;51.026;8.968;2022-12-18T06:57:04;-9.00;99.90
12578;DHT22;6354;51.026;8.968;2022-12-18T06:59:33;-9.00;99.90
12578;DHT22;6354;51.026;8.968;2022-12-18T07:02:01;-8.90;99.90
12578;DHT22;6354;51.026;8.968;2022-12-18T07:04:30;-8.90;99.90
12578;DHT22;6354;51.026;8.968;2022-12-18T07:06:58;-8.90;99.90
12578;DHT22;6354;51.026;8.968;2022-12-18T07:09:27;-8.90;99.90
12578;DHT22;6354;51.026;8.968;2022-12-18T07:11:55;-9.00;99.90
12578;DHT22;6354;51.026;8.968;2022-12-18T07:14:24;-9.00;99.90
12578;DHT22;6354;51.026;8.968;2022-12-18T07:16:53;-9.00;99.90
12578;DHT22;6354;51.026;8.968;2022-12-18T07:19:21;-8.90;99.90
12578;DHT22;6354;51.026;8.968;2022-12-18T07:21:50;-9.00;99.90
12578;DHT22;6354;51.026;8.968;2022-12-18T07:24:18;-9.00;99.90
12578;DHT22;6354;51.026;8.968;2022-12-18T07:26:48;-9.00;99.90
12578;DHT22;6354;51.026;8.968;2022-12-18T07:29:16;-9.00;99.90
12578;DHT22;6354;51.026;8.968;2022-12-18T07:31:44;-8.90;99.90
12578;DHT22;6354;51.026;8.968;2022-12-18T07:34:13;-8.90;99.90
12578;DHT22;6354;51.026;8.968;2022-12-18T07:36:42;-8.90;99.90
12578;DHT22;6354;51.026;8.968;2022-12-18T07:39:10;-8.90;99.90
12578;DHT22;6354;51.026;8.968;2022-12-18T07:41:39;-8.90;99.90
12578;DHT22;6354;51.026;8.968;2022-12-18T07:44:14;-8.80;99.90
12578;DHT22;6354;51.026;8.968;2022-12-18T07:46:42;-8.80;99.90
12578;DHT22;6354;51.026;8.968;2022-12-18T07:49:10;-8.80;99.90
12578;DHT22;6354;51.026;8.968;2022-12-18T07:51:38;-8.70;99.90
12578;DHT22;6354;51.026;8.968;2022-12-18T07:54:06;-8.70;99.90
12578;DHT22;6354;51.026;8.968;2022-12-18T07:56:35;-8.60;99.90
12578;DHT22;6354;51.026;8.968;2022-12-18T07:59:03;-8.60;99.90
12578;DHT22;6354;51.026;8.968;2022-12-18T08:01:33;-8.60;99.90
12578;DHT22;6354;51.026;8.968;2022-12-18T08:04:01;-8.50;99.90
12578;DHT22;6354;51.026;8.968;2022-12-18T08:06:29;-8.40;99.90
12578;DHT22;6354;51.026;8.968;2022-12-18T08:08:57;-8.30;99.90
12578;DHT22;6354;51.026;8.968;2022-12-18T08:11:27;-8.30;99.90
12578;DHT22;6354;51.026;8.968;2022-12-18T08:13:55;-8.30;99.90
12578;DHT22;6354;51.026;8.968;2022-12-18T08:16:24;-8.20;99.90
12578;DHT22;6354;51.026;8.968;2022-12-18T08:18:54;-8.20;99.90
12578;DHT22;6354;51.026;8.968;2022-12-18T08:21:25;-8.10;99.90
12578;DHT22;6354;51.026;8.968;2022-12-18T08:23:55;-8.10;99.90
12578;DHT22;6354;51.026;8.968;2022-12-18T08:26:24;-8.10;99.90
12578;DHT22;6354;51.026;8.968;2022-12-18T08:28:53;-8.20;99.90
12578;DHT22;6354;51.026;8.968;2022-12-18T08:31:22;-8.20;99.90
12578;DHT22;6354;51.026;8.968;2022-12-18T08:33:50;-8.10;99.90
12578;DHT22;6354;51.026;8.968;2022-12-18T08:36:22;-8.10;99.90
12578;DHT22;6354;51.026;8.968;2022-12-18T08:38:51;-8.00;99.90
12578;DHT22;6354;51.026;8.968;2022-12-18T08:41:20;-8.00;99.90
12578;DHT22;6354;51.026;8.968;2022-12-18T08:43:48;-8.00;99.90
12578;DHT22;6354;51.026;8.968;2022-12-18T08:46:36;-7.90;99.90
12578;DHT22;6354;51.026;8.968;2022-12-18T08:49:05;-7.80;99.90
12578;DHT22;6354;51.026;8.968;2022-12-18T08:51:35;-7.80;99.90
12578;DHT22;6354;51.026;8.968;2022-12-18T08:54:04;-7.70;99.90
12578;DHT22;6354;51.026;8.968;2022-12-18T08:56:33;-7.60;99.90
12578;DHT22;6354;51.026;8.968;2022-12-18T08:59:01;-7.50;99.90
12578;DHT22;6354;51.026;8.968;2022-12-18T09:01:31;-7.40;99.90
12578;DHT22;6354;51.026;8.968;2022-12-18T09:04:01;-7.30;99.90
12578;DHT22;6354;51.026;8.968;2022-12-18T09:06:30;-7.20;99.90
12578;DHT22;6354;51.026;8.968;2022-12-18T09:09:00;-7.20;99.90
12578;DHT22;6354;51.026;8.968;2022-12-18T09:11:29;-7.10;99.90
12578;DHT22;6354;51.026;8.968;2022-12-18T09:13:59;-7.00;99.90
12578;DHT22;6354;51.026;8.968;2022-12-18T09:16:28;-7.00;99.90
12578;DHT22;6354;51.026;8.968;2022-12-18T09:18:59;-6.80;99.90
12578;DHT22;6354;51.026;8.968;2022-12-18T09:21:29;-6.80;99.90
12578;DHT22;6354;51.026;8.968;2022-12-18T09:24:02;-6.70;99.90
12578;DHT22;6354;51.026;8.968;2022-12-18T09:26:35;-6.70;99.90
12578;DHT22;6354;51.026;8.968;2022-12-18T09:29:04;-6.60;99.90
12578;DHT22;6354;51.026;8.968;2022-12-18T09:31:34;-6.50;99.90
12578;DHT22;6354;51.026;8.968;2022-12-18T09:34:02;-6.40;99.90
12578;DHT22;6354;51.026;8.968;2022-12-18T09:36:30;-6.30;99.90
12578;DHT22;6354;51.026;8.968;2022-12-18T09:38:58;-6.30;99.90
12578;DHT22;6354;51.026;8.968;2022-12-18T09:41:45;-6.20;99.90
12578;DHT22;6354;51.026;8.968;2022-12-18T09:44:19;-6.10;99.90
12578;DHT22;6354;51.026;8.968;2022-12-18T09:46:53;-6.00;99.90
12578;DHT22;6354;51.026;8.968;2022-12-18T09:49:23;-6.00;99.90
12578;DHT22;6354;51.026;8.968;2022-12-18T09:51:56;-5.80;99.90
12578;DHT22;6354;51.026;8.968;2022-12-18T09:54:29;-5.70;99.90
12578;DHT22;6354;51.026;8.968;2022-12-18T09:57:02;-5.60;99.90
12578;DHT22;6354;51.026;8.968;2022-12-18T09:59:33;-5.50;99.90
12578;DHT22;6354;51.026;8.968;2022-12-18T10:02:15;-5.50;99.90
12578;DHT22;6354;51.026;8.968;2022-12-18T10:04:52;-5.40;99.90
12578;DHT22;6354;51.026;8.968;2022-12-18T10:07:28;-5.40;99.90
12578;DHT22;6354;51.026;8.968;2022-12-18T10:10:03;-5.30;99.90
12578;DHT22;6354;51.026;8.968;2022-12-18T10:12:40;-5.30;99.90
12578;DHT22;6354;51.026;8.968;2022-12-18T10:15:15;-5.20;99.90
12578;DHT22;6354;51.026;8.968;2022-12-18T10:17:48;-5.20;99.90
12578;DHT22;6354;51.026;8.968;2022-12-18T10:20:24;-5.20;99.90
12578;DHT22;6354;51.026;8.968;2022-12-18T10:22:59;-5.10;99.90
12578;DHT22;6354;51.026;8.968;2022-12-18T10:25:31;-5.00;99.90
12578;DHT22;6354;51.026;8.968;2022-12-18T10:28:14;-5.00;99.90
12578;DHT22;6354;51.026;8.968;2022-12-18T10:30:43;-4.90;99.90
12578;DHT22;6354;51.026;8.968;2022-12-18T10:33:12;-4.80;99.90
12578;DHT22;6354;51.026;8.968;2022-12-18T10:35:42;-4.80;99.90
12578;DHT22;6354;51.026;8.968;2022-12-18T10:38:22;-4.70;99.90
12578;DHT22;6354;51.026;8.968;2022-12-18T10:40:52;-4.70;99.90
12578;DHT22;6354;51.026;8.968;2022-12-18T10:43:24;-4.60;99.90
12578;DHT22;6354;51.026;8.968;2022-12-18T10:46:08;-4.60;99.90
12578;DHT22;6354;51.026;8.968;2022-12-18T10:48:52;-4.50;99.90
12578;DHT22;6354;51.026;8.968;2022-12-18T10:51:23;-4.40;99.90
12578;DHT22;6354;51.026;8.968;2022-12-18T10:53:54;-4.30;99.90
12578;DHT22;6354;51.026;8.968;2022-12-18T10:56:25;-4.30;99.90
12578;DHT22;6354;51.026;8.968;2022-12-18T10:59:00;-4.20;99.90
12578;DHT22;6354;51.026;8.968;2022-12-18T11:01:46;-4.10;99.90
12578;DHT22;6354;51.026;8.968;2022-12-18T11:04:17;-4.00;99.90
12578;DHT22;6354;51.026;8.968;2022-12-18T11:06:55;-3.90;99.90
12578;DHT22;6354;51.026;8.968;2022-12-18T11:09:26;-3.80;99.90
12578;DHT22;6354;51.026;8.968;2022-12-18T11:11:55;-3.70;99.90
12578;DHT22;6354;51.026;8.968;2022-12-18T11:14:28;-3.70;99.90
12578;DHT22;6354;51.026;8.968;2022-12-18T11:16:58;-3.60;99.90
12578;DHT22;6354;51.026;8.968;2022-12-18T11:19:52;-3.60;99.90
12578;DHT22;6354;51.026;8.968;2022-12-18T11:22:24;-3.50;99.90
12578;DHT22;6354;51.026;8.968;2022-12-18T11:24:57;-3.40;99.90
12578;DHT22;6354;51.026;8.968;2022-12-18T11:27:51;-3.40;99.90
12578;DHT22;6354;51.026;8.968;2022-12-18T11:30:27;-3.30;99.90
12578;DHT22;6354;51.026;8.968;2022-12-18T11:33:02;-3.30;99.90
12578;DHT22;6354;51.026;8.968;2022-12-18T11:35:42;-3.30;99.90
12578;DHT22;6354;51.026;8.968;2022-12-18T11:38:19;-3.20;99.90
12578;DHT22;6354;51.026;8.968;2022-12-18T11:40:53;-3.20;99.90
12578;DHT22;6354;51.026;8.968;2022-12-18T11:43:27;-3.20;99.90
12578;DHT22;6354;51.026;8.968;2022-12-18T11:46:01;-3.10;99.90
12578;DHT22;6354;51.026;8.968;2022-12-18T11:48:34;-3.10;99.90
12578;DHT22;6354;51.026;8.968;2022-12-18T11:51:09;-3.10;99.90
12578;DHT22;6354;51.026;8.968;2022-12-18T11:53:39;-3.10;99.90
12578;DHT22;6354;51.026;8.968;2022-12-18T11:56:29;-3.10;99.90
12578;DHT22;6354;51.026;8.968;2022-12-18T11:59:05;-3.00;99.90
12578;DHT22;6354;51.026;8.968;2022-12-18T12:01:46;-3.00;99.90
12578;DHT22;6354;51.026;8.968;2022-12-18T12:04:55;-3.00;99.90
12578;DHT22;6354;51.026;8.968;2022-12-18T12:07:35;-3.00;99.90
12578;DHT22;6354;51.026;8.968;2022-12-18T12:10:16;-3.00;99.90
12578;DHT22;6354;51.026;8.968;2022-12-18T12:13:02;-2.90;99.90
12578;DHT22;6354;51.026;8.968;2022-12-18T12:15:39;-2.90;99.90
12578;DHT22;6354;51.026;8.968;2022-12-18T12:18:22;-2.90;99.90
12578;DHT22;6354;51.026;8.968;2022-12-18T12:20:58;-2.80;99.90
12578;DHT22;6354;51.026;8.968;2022-12-18T12:23:35;-2.80;99.90
12578;DHT22;6354;51.026;8.968;2022-12-18T12:26:07;-2.80;99.90
12578;DHT22;6354;51.026;8.968;2022-12-18T12:28:57;-2.80;99.90
12578;DHT22;6354;51.026;8.968;2022-12-18T12:31:41;-2.80;99.90
12578;DHT22;6354;51.026;8.968;2022-12-18T12:34:16;-2.80;99.90
12578;DHT22;6354;51.026;8.968;2022-12-18T12:36:58;-2.80;99.90
12578;DHT22;6354;51.026;8.968;2022-12-18T12:39:32;-2.80;99.90
12578;DHT22;6354;51.026;8.968;2022-12-18T12:42:04;-2.70;99.90
12578;DHT22;6354;51.026;8.968;2022-12-18T12:44:54;-2.70;99.90
12578;DHT22;6354;51.026;8.968;2022-12-18T12:47:28;-2.60;99.90
12578;DHT22;6354;51.026;8.968;2022-12-18T12:50:03;-2.60;99.90
12578;DHT22;6354;51.026;8.968;2022-12-18T12:52:37;-2.50;99.90
12578;DHT22;6354;51.026;8.968;2022-12-18T12:55:25;-2.50;99.90
12578;DHT22;6354;51.026;8.968;2022-12-18T12:58:02;-2.40;99.90
12578;DHT22;6354;51.026;8.968;2022-12-18T13:00:39;-2.30;99.90
12578;DHT22;6354;51.026;8.968;2022-12-18T13:03:12;-2.40;99.90
12578;DHT22;6354;51.026;8.968;2022-12-18T13:05:49;-2.40;99.90
12578;DHT22;6354;51.026;8.968;2022-12-18T13:08:26;-2.40;99.90
12578;DHT22;6354;51.026;8.968;2022-12-18T13:11:00;-2.40;99.90
12578;DHT22;6354;51.026;8.968;2022-12-18T13:13:51;-2.40;99.90
12578;DHT22;6354;51.026;8.968;2022-12-18T13:16:21;-2.50;99.90
12578;DHT22;6354;51.026;8.968;2022-12-18T13:18:50;-2.40;99.90
12578;DHT22;6354;51.026;8.968;2022-12-18T13:21:25;-2.40;99.90
12578;DHT22;6354;51.026;8.968;2022-12-18T13:23:56;-2.40;99.90
12578;DHT22;6354;51.026;8.968;2022-12-18T13:26:34;-2.50;99.90
12578;DHT22;6354;51.026;8.968;2022-12-18T13:29:02;-2.50;99.90
12578;DHT22;6354;51.026;8.968;2022-12-18T13:34:30;-2.50;99.90
12578;DHT22;6354;51.026;8.968;2022-12-18T13:43:31;-2.50;99.90
12578;DHT22;6354;51.026;8.968;2022-12-18T13:46:27;-2.60;99.90
12578;DHT22;6354;51.026;8.968;2022-12-18T13:49:00;-2.60;99.90
12578;DHT22;6354;51.026;8.968;2022-12-18T13:51:31;-2.70;99.90
12578;DHT22;6354;51.026;8.968;2022-12-18T13:54:02;-2.70;99.90
12578;DHT22;6354;51.026;8.968;2022-12-18T13:56:43;-2.70;99.90
12578;DHT22;6354;51.026;8.968;2022-12-18T13:59:18;-2.70;99.90
12578;DHT22;6354;51.026;8.968;2022-12-18T14:01:53;-2.70;99.90
12578;DHT22;6354;51.026;8.968;2022-12-18T14:04:25;-2.70;99.90
12578;DHT22;6354;51.026;8.968;2022-12-18T14:06:57;-2.70;99.90
12578;DHT22;6354;51.026;8.968;2022-12-18T14:09:29;-2.70;99.90
12578;DHT22;6354;51.026;8.968;2022-12-18T14:11:59;-2.70;99.90
12578;DHT22;6354;51.026;8.968;2022-12-18T14:14:48;-2.70;99.90
12578;DHT22;6354;51.026;8.968;2022-12-18T14:17:21;-2.80;99.90
12578;DHT22;6354;51.026;8.968;2022-12-18T14:19:51;-2.80;99.90
12578;DHT22;6354;51.026;8.968;2022-12-18T14:22:21;-2.80;99.90
12578;DHT22;6354;51.026;8.968;2022-12-18T14:25:10;-2.80;99.90
12578;DHT22;6354;51.026;8.968;2022-12-18T14:27:44;-2.80;99.90
12578;DHT22;6354;51.026;8.968;2022-12-18T14:30:25;-2.80;99.90
12578;DHT22;6354;51.026;8.968;2022-12-18T14:33:04;-2.90;99.90
12578;DHT22;6354;51.026;8.968;2022-12-18T14:35:32;-2.90;99.90
12578;DHT22;6354;51.026;8.968;2022-12-18T14:38:21;-2.90;99.90
12578;DHT22;6354;51.026;8.968;2022-12-18T14:40:53;-3.00;99.90
12578;DHT22;6354;51.026;8.968;2022-12-18T14:43:23;-3.10;99.90
12578;DHT22;6354;51.026;8.968;2022-12-18T14:45:51;-3.10;99.90
12578;DHT22;6354;51.026;8.968;2022-12-18T14:48:21;-3.10;99.90
12578;DHT22;6354;51.026;8.968;2022-12-18T14:50:59;-3.10;99.90
12578;DHT22;6354;51.026;8.968;2022-12-18T14:53:34;-3.10;99.90
12578;DHT22;6354;51.026;8.968;2022-12-18T14:56:10;-3.10;99.90
12578;DHT22;6354;51.026;8.968;2022-12-18T14:58:49;-3.20;99.90
12578;DHT22;6354;51.026;8.968;2022-12-18T15:01:23;-3.20;99.90
12578;DHT22;6354;51.026;8.968;2022-12-18T15:03:52;-3.30;99.90
12578;DHT22;6354;51.026;8.968;2022-12-18T15:06:27;-3.30;99.90
12578;DHT22;6354;51.026;8.968;2022-12-18T15:08:57;-3.30;99.90
12578;DHT22;6354;51.026;8.968;2022-12-18T15:11:29;-3.30;99.90
12578;DHT22;6354;51.026;8.968;2022-12-18T15:14:21;-3.30;99.90
12578;DHT22;6354;51.026;8.968;2022-12-18T15:16:51;-3.40;99.90
12578;DHT22;6354;51.026;8.968;2022-12-18T15:19:21;-3.30;99.90
12578;DHT22;6354;51.026;8.968;2022-12-18T15:21:50;-3.30;99.90
12578;DHT22;6354;51.026;8.968;2022-12-18T15:24:21;-3.30;99.90
12578;DHT22;6354;51.026;8.968;2022-12-18T15:26:52;-3.30;99.90
12578;DHT22;6354;51.026;8.968;2022-12-18T15:29:22;-3.40;99.90
12578;DHT22;6354;51.026;8.968;2022-12-18T15:32:00;-3.40;99.90
12578;DHT22;6354;51.026;8.968;2022-12-18T15:34:29;-3.40;99.90
12578;DHT22;6354;51.026;8.968;2022-12-18T15:36:57;-3.40;99.90
12578;DHT22;6354;51.026;8.968;2022-12-18T15:39:25;-3.40;99.90
12578;DHT22;6354;51.026;8.968;2022-12-18T15:41:53;-3.40;99.90
12578;DHT22;6354;51.026;8.968;2022-12-18T15:44:40;-3.40;99.90
12578;DHT22;6354;51.026;8.968;2022-12-18T15:47:11;-3.40;99.90
12578;DHT22;6354;51.026;8.968;2022-12-18T15:49:40;-3.40;99.90
12578;DHT22;6354;51.026;8.968;2022-12-18T15:52:10;-3.50;99.90
12578;DHT22;6354;51.026;8.968;2022-12-18T15:54:39;-3.60;99.90
12578;DHT22;6354;51.026;8.968;2022-12-18T15:57:25;-3.60;99.90
12578;DHT22;6354;51.026;8.968;2022-12-18T15:59:55;-3.60;99.90
12578;DHT22;6354;51.026;8.968;2022-12-18T16:02:25;-3.70;99.90
12578;DHT22;6354;51.026;8.968;2022-12-18T16:04:54;-3.60;99.90
12578;DHT22;6354;51.026;8.968;2022-12-18T16:07:23;-3.60;99.90
12578;DHT22;6354;51.026;8.968;2022-12-18T16:09:56;-3.60;99.90
12578;DHT22;6354;51.026;8.968;2022-12-18T16:12:26;-3.60;99.90
12578;DHT22;6354;51.026;8.968;2022-12-18T16:14:56;-3.50;99.90
12578;DHT22;6354;51.026;8.968;2022-12-18T16:17:24;-3.50;99.90
12578;DHT22;6354;51.026;8.968;2022-12-18T16:19:52;-3.50;99.90
12578;DHT22;6354;51.026;8.968;2022-12-18T16:22:22;-3.60;99.90
12578;DHT22;6354;51.026;8.968;2022-12-18T16:24:51;-3.60;99.90
12578;DHT22;6354;51.026;8.968;2022-12-18T16:27:20;-3.60;99.90
12578;DHT22;6354;51.026;8.968;2022-12-18T16:29:49;-3.50;99.90